sensor_id;sensor_type;location;lat;lon;timestamp;P1;durP1;ratioP1;P2;durP2;ratioP2
41799;SDS011;27468;47.460;19.034;2023-05-17T00:00:36;6.85;;;4.18;;
41799;SDS011;27468;47.460;19.034;2023-05-17T00:03:02;7.85;;;5.30;;
41799;SDS011;27468;47.460;19.034;2023-05-17T00:05:27;7.88;;;4.50;;
41799;SDS011;27468;47.460;19.034;2023-05-17T00:07:53;8.32;;;4.22;;
41799;SDS011;27468;47.460;19.034;2023-05-17T00:10:18;7.07;;;4.45;;
41799;SDS011;27468;47.460;19.034;2023-05-17T00:12:43;9.38;;;4.30;;
41799;SDS011;27468;47.460;19.034;2023-05-17T00:15:09;6.72;;;4.68;;
41799;SDS011;27468;47.460;19.034;2023-05-17T00:17:34;8.38;;;4.57;;
41799;SDS011;27468;47.460;19.034;2023-05-17T00:20:02;6.75;;;4.40;;
41799;SDS011;27468;47.460;19.034;2023-05-17T00:22:28;7.13;;;4.07;;
41799;SDS011;27468;47.460;19.034;2023-05-17T00:24:54;10.18;;;4.97;;
41799;SDS011;27468;47.460;19.034;2023-05-17T00:27:19;10.23;;;4.95;;
41799;SDS011;27468;47.460;19.034;2023-05-17T00:29:44;9.32;;;4.95;;
41799;SDS011;27468;47.460;19.034;2023-05-17T00:32:10;7.78;;;4.15;;
41799;SDS011;27468;47.460;19.034;2023-05-17T00:34:35;8.05;;;4.30;;
41799;SDS011;27468;47.460;19.034;2023-05-17T00:37:01;8.82;;;4.53;;
41799;SDS011;27468;47.460;19.034;2023-05-17T00:39:26;8.88;;;4.63;;
41799;SDS011;27468;47.460;19.034;2023-05-17T00:41:51;7.05;;;4.25;;
41799;SDS011;27468;47.460;19.034;2023-05-17T00:44:17;7.00;;;4.57;;
41799;SDS011;27468;47.460;19.034;2023-05-17T00:46:42;7.63;;;4.45;;
41799;SDS011;27468;47.460;19.034;2023-05-17T00:49:08;7.88;;;4.22;;
41799;SDS011;27468;47.460;19.034;2023-05-17T00:51:33;6.40;;;4.22;;
41799;SDS011;27468;47.460;19.034;2023-05-17T00:54:00;7.18;;;4.07;;
41799;SDS011;27468;47.460;19.034;2023-05-17T00:56:26;7.63;;;4.60;;
41799;SDS011;27468;47.460;19.034;2023-05-17T00:58:51;6.93;;;4.15;;
41799;SDS011;27468;47.460;19.034;2023-05-17T01:01:17;8.40;;;4.22;;
41799;SDS011;27468;47.460;19.034;2023-05-17T01:03:44;7.10;;;3.90;;
41799;SDS011;27468;47.460;19.034;2023-05-17T01:06:09;7.25;;;4.00;;
41799;SDS011;27468;47.460;19.034;2023-05-17T01:08:35;8.13;;;4.63;;
41799;SDS011;27468;47.460;19.034;2023-05-17T01:11:18;7.22;;;4.05;;
41799;SDS011;27468;47.460;19.034;2023-05-17T01:16:44;7.90;;;4.30;;
41799;SDS011;27468;47.460;19.034;2023-05-17T01:27:30;7.25;;;4.18;;
41799;SDS011;27468;47.460;19.034;2023-05-17T01:29:57;8.48;;;4.75;;
41799;SDS011;27468;47.460;19.034;2023-05-17T01:32:25;7.53;;;4.05;;
41799;SDS011;27468;47.460;19.034;2023-05-17T01:34:52;8.00;;;4.20;;
41799;SDS011;27468;47.460;19.034;2023-05-17T01:37:17;8.65;;;4.43;;
41799;SDS011;27468;47.460;19.034;2023-05-17T01:39:43;7.80;;;4.43;;
41799;SDS011;27468;47.460;19.034;2023-05-17T01:42:21;8.18;;;4.80;;
41799;SDS011;27468;47.460;19.034;2023-05-17T01:48:11;7.57;;;4.20;;
41799;SDS011;27468;47.460;19.034;2023-05-17T01:50:44;10.18;;;4.45;;
41799;SDS011;27468;47.460;19.034;2023-05-17T01:53:24;9.13;;;4.18;;
41799;SDS011;27468;47.460;19.034;2023-05-17T01:55:56;6.85;;;4.97;;
41799;SDS011;27468;47.460;19.034;2023-05-17T01:58:28;7.18;;;3.47;;
41799;SDS011;27468;47.460;19.034;2023-05-17T02:00:54;10.30;;;4.75;;
41799;SDS011;27468;47.460;19.034;2023-05-17T02:03:22;8.88;;;4.47;;
41799;SDS011;27468;47.460;19.034;2023-05-17T02:05:48;9.75;;;4.80;;
41799;SDS011;27468;47.460;19.034;2023-05-17T02:08:13;8.43;;;4.65;;
41799;SDS011;27468;47.460;19.034;2023-05-17T02:10:39;8.85;;;4.80;;
41799;SDS011;27468;47.460;19.034;2023-05-17T02:13:05;8.90;;;4.68;;
41799;SDS011;27468;47.460;19.034;2023-05-17T02:15:30;6.80;;;4.22;;
41799;SDS011;27468;47.460;19.034;2023-05-17T02:17:56;8.93;;;4.47;;
41799;SDS011;27468;47.460;19.034;2023-05-17T02:20:22;7.57;;;4.65;;
41799;SDS011;27468;47.460;19.034;2023-05-17T02:22:47;7.80;;;4.13;;
41799;SDS011;27468;47.460;19.034;2023-05-17T02:25:13;8.45;;;4.35;;
41799;SDS011;27468;47.460;19.034;2023-05-17T02:27:38;8.45;;;3.97;;
41799;SDS011;27468;47.460;19.034;2023-05-17T02:30:03;7.40;;;4.00;;
41799;SDS011;27468;47.460;19.034;2023-05-17T02:32:30;9.00;;;4.22;;
41799;SDS011;27468;47.460;19.034;2023-05-17T02:34:56;7.75;;;4.35;;
41799;SDS011;27468;47.460;19.034;2023-05-17T02:37:21;9.23;;;4.38;;
41799;SDS011;27468;47.460;19.034;2023-05-17T02:39:46;8.98;;;4.47;;
41799;SDS011;27468;47.460;19.034;2023-05-17T02:42:15;7.07;;;4.45;;
41799;SDS011;27468;47.460;19.034;2023-05-17T02:44:41;9.07;;;4.20;;
41799;SDS011;27468;47.460;19.034;2023-05-17T02:47:06;8.65;;;4.18;;
41799;SDS011;27468;47.460;19.034;2023-05-17T02:49:31;8.77;;;4.45;;
41799;SDS011;27468;47.460;19.034;2023-05-17T02:51:57;7.82;;;4.65;;
41799;SDS011;27468;47.460;19.034;2023-05-17T02:54:22;11.27;;;4.25;;
41799;SDS011;27468;47.460;19.034;2023-05-17T02:56:48;9.35;;;4.72;;
41799;SDS011;27468;47.460;19.034;2023-05-17T02:59:13;9.45;;;4.40;;
41799;SDS011;27468;47.460;19.034;2023-05-17T03:01:38;8.48;;;4.65;;
41799;SDS011;27468;47.460;19.034;2023-05-17T03:04:04;10.00;;;4.68;;
41799;SDS011;27468;47.460;19.034;2023-05-17T03:06:30;11.43;;;4.88;;
41799;SDS011;27468;47.460;19.034;2023-05-17T03:08:55;10.88;;;4.72;;
41799;SDS011;27468;47.460;19.034;2023-05-17T03:11:21;11.20;;;5.05;;
41799;SDS011;27468;47.460;19.034;2023-05-17T03:13:46;11.00;;;5.20;;
41799;SDS011;27468;47.460;19.034;2023-05-17T03:16:15;9.70;;;4.93;;
41799;SDS011;27468;47.460;19.034;2023-05-17T03:18:41;9.32;;;5.13;;
41799;SDS011;27468;47.460;19.034;2023-05-17T03:21:06;9.40;;;4.70;;
41799;SDS011;27468;47.460;19.034;2023-05-17T03:23:31;8.57;;;5.10;;
41799;SDS011;27468;47.460;19.034;2023-05-17T03:25:57;10.93;;;5.35;;
41799;SDS011;27468;47.460;19.034;2023-05-17T03:28:22;9.40;;;5.15;;
41799;SDS011;27468;47.460;19.034;2023-05-17T03:30:48;12.02;;;4.88;;
41799;SDS011;27468;47.460;19.034;2023-05-17T03:33:13;11.55;;;5.72;;
41799;SDS011;27468;47.460;19.034;2023-05-17T03:35:39;12.25;;;5.43;;
41799;SDS011;27468;47.460;19.034;2023-05-17T03:38:04;11.68;;;5.03;;
41799;SDS011;27468;47.460;19.034;2023-05-17T03:40:29;13.50;;;5.38;;
41799;SDS011;27468;47.460;19.034;2023-05-17T03:42:55;12.27;;;6.22;;
41799;SDS011;27468;47.460;19.034;2023-05-17T03:45:21;9.85;;;4.93;;
41799;SDS011;27468;47.460;19.034;2023-05-17T03:47:47;9.55;;;5.30;;
41799;SDS011;27468;47.460;19.034;2023-05-17T03:50:12;10.75;;;5.55;;
41799;SDS011;27468;47.460;19.034;2023-05-17T03:52:37;10.77;;;5.32;;
41799;SDS011;27468;47.460;19.034;2023-05-17T03:55:05;13.85;;;5.75;;
41799;SDS011;27468;47.460;19.034;2023-05-17T03:57:31;13.02;;;5.53;;
41799;SDS011;27468;47.460;19.034;2023-05-17T03:59:57;11.70;;;5.50;;
41799;SDS011;27468;47.460;19.034;2023-05-17T04:02:23;12.75;;;5.32;;
41799;SDS011;27468;47.460;19.034;2023-05-17T04:04:51;11.75;;;6.05;;
41799;SDS011;27468;47.460;19.034;2023-05-17T04:07:17;8.30;;;5.38;;
41799;SDS011;27468;47.460;19.034;2023-05-17T04:09:43;11.18;;;6.00;;
41799;SDS011;27468;47.460;19.034;2023-05-17T04:12:08;10.45;;;5.72;;
41799;SDS011;27468;47.460;19.034;2023-05-17T04:14:37;8.13;;;4.90;;
41799;SDS011;27468;47.460;19.034;2023-05-17T04:17:02;11.38;;;5.97;;
41799;SDS011;27468;47.460;19.034;2023-05-17T04:19:28;9.40;;;5.80;;
41799;SDS011;27468;47.460;19.034;2023-05-17T04:21:53;11.35;;;5.20;;
41799;SDS011;27468;47.460;19.034;2023-05-17T04:24:19;8.15;;;4.68;;
41799;SDS011;27468;47.460;19.034;2023-05-17T04:26:44;9.88;;;5.43;;
41799;SDS011;27468;47.460;19.034;2023-05-17T04:29:09;9.32;;;4.93;;
41799;SDS011;27468;47.460;19.034;2023-05-17T04:31:35;9.82;;;5.70;;
41799;SDS011;27468;47.460;19.034;2023-05-17T04:34:00;10.48;;;5.55;;
41799;SDS011;27468;47.460;19.034;2023-05-17T04:36:26;9.02;;;5.40;;
41799;SDS011;27468;47.460;19.034;2023-05-17T04:38:52;9.10;;;5.10;;
41799;SDS011;27468;47.460;19.034;2023-05-17T04:41:17;10.98;;;5.60;;
41799;SDS011;27468;47.460;19.034;2023-05-17T04:43:43;11.05;;;5.93;;
41799;SDS011;27468;47.460;19.034;2023-05-17T04:46:08;9.68;;;5.70;;
41799;SDS011;27468;47.460;19.034;2023-05-17T04:48:34;10.65;;;5.80;;
41799;SDS011;27468;47.460;19.034;2023-05-17T04:51:00;10.48;;;5.93;;
41799;SDS011;27468;47.460;19.034;2023-05-17T04:53:28;11.85;;;6.78;;
41799;SDS011;27468;47.460;19.034;2023-05-17T04:55:53;9.55;;;5.55;;
41799;SDS011;27468;47.460;19.034;2023-05-17T04:58:19;11.05;;;5.97;;
41799;SDS011;27468;47.460;19.034;2023-05-17T05:00:44;12.30;;;5.45;;
41799;SDS011;27468;47.460;19.034;2023-05-17T05:03:10;10.85;;;5.75;;
41799;SDS011;27468;47.460;19.034;2023-05-17T05:05:35;10.05;;;6.30;;
41799;SDS011;27468;47.460;19.034;2023-05-17T05:08:00;13.43;;;5.88;;
41799;SDS011;27468;47.460;19.034;2023-05-17T05:10:26;10.25;;;6.00;;
41799;SDS011;27468;47.460;19.034;2023-05-17T05:12:54;9.07;;;5.55;;
41799;SDS011;27468;47.460;19.034;2023-05-17T05:15:20;9.77;;;5.72;;
41799;SDS011;27468;47.460;19.034;2023-05-17T05:17:46;9.63;;;5.30;;
41799;SDS011;27468;47.460;19.034;2023-05-17T05:20:12;9.30;;;4.90;;
41799;SDS011;27468;47.460;19.034;2023-05-17T05:22:37;10.40;;;5.20;;
41799;SDS011;27468;47.460;19.034;2023-05-17T05:25:03;9.90;;;5.18;;
41799;SDS011;27468;47.460;19.034;2023-05-17T05:27:29;9.30;;;5.22;;
41799;SDS011;27468;47.460;19.034;2023-05-17T05:29:54;9.80;;;4.97;;
41799;SDS011;27468;47.460;19.034;2023-05-17T05:32:20;8.25;;;4.75;;
41799;SDS011;27468;47.460;19.034;2023-05-17T05:34:45;13.38;;;6.43;;
41799;SDS011;27468;47.460;19.034;2023-05-17T05:37:11;7.57;;;4.63;;
41799;SDS011;27468;47.460;19.034;2023-05-17T05:39:36;8.05;;;5.22;;
41799;SDS011;27468;47.460;19.034;2023-05-17T05:42:02;8.20;;;4.90;;
41799;SDS011;27468;47.460;19.034;2023-05-17T05:44:28;9.27;;;4.75;;
41799;SDS011;27468;47.460;19.034;2023-05-17T05:46:54;10.02;;;5.20;;
41799;SDS011;27468;47.460;19.034;2023-05-17T05:49:19;8.13;;;4.65;;
41799;SDS011;27468;47.460;19.034;2023-05-17T05:51:45;8.52;;;5.53;;
41799;SDS011;27468;47.460;19.034;2023-05-17T05:54:11;8.68;;;5.10;;
41799;SDS011;27468;47.460;19.034;2023-05-17T05:56:37;9.23;;;4.70;;
41799;SDS011;27468;47.460;19.034;2023-05-17T05:59:03;6.68;;;4.43;;
41799;SDS011;27468;47.460;19.034;2023-05-17T06:01:28;9.18;;;5.35;;
41799;SDS011;27468;47.460;19.034;2023-05-17T06:03:53;9.10;;;4.60;;
41799;SDS011;27468;47.460;19.034;2023-05-17T06:06:19;11.75;;;5.75;;
41799;SDS011;27468;47.460;19.034;2023-05-17T06:08:45;8.00;;;4.90;;
41799;SDS011;27468;47.460;19.034;2023-05-17T06:11:11;7.60;;;4.38;;
41799;SDS011;27468;47.460;19.034;2023-05-17T06:13:37;8.05;;;5.03;;
41799;SDS011;27468;47.460;19.034;2023-05-17T06:16:03;8.50;;;4.80;;
41799;SDS011;27468;47.460;19.034;2023-05-17T06:18:29;8.25;;;4.65;;
41799;SDS011;27468;47.460;19.034;2023-05-17T06:20:55;7.75;;;4.57;;
41799;SDS011;27468;47.460;19.034;2023-05-17T06:23:21;8.82;;;4.35;;
41799;SDS011;27468;47.460;19.034;2023-05-17T06:25:47;7.60;;;4.22;;
41799;SDS011;27468;47.460;19.034;2023-05-17T06:28:13;6.80;;;3.72;;
41799;SDS011;27468;47.460;19.034;2023-05-17T06:30:38;7.78;;;4.97;;
41799;SDS011;27468;47.460;19.034;2023-05-17T06:33:03;10.02;;;5.25;;
41799;SDS011;27468;47.460;19.034;2023-05-17T06:35:29;7.68;;;4.47;;
41799;SDS011;27468;47.460;19.034;2023-05-17T06:37:54;8.65;;;4.80;;
41799;SDS011;27468;47.460;19.034;2023-05-17T06:40:20;7.88;;;4.38;;
41799;SDS011;27468;47.460;19.034;2023-05-17T06:42:45;9.45;;;5.13;;
41799;SDS011;27468;47.460;19.034;2023-05-17T06:45:11;8.45;;;4.85;;
41799;SDS011;27468;47.460;19.034;2023-05-17T06:47:36;8.88;;;4.75;;
41799;SDS011;27468;47.460;19.034;2023-05-17T06:50:02;10.23;;;5.47;;
41799;SDS011;27468;47.460;19.034;2023-05-17T06:52:28;9.63;;;4.70;;
41799;SDS011;27468;47.460;19.034;2023-05-17T06:54:53;9.93;;;5.05;;
41799;SDS011;27468;47.460;19.034;2023-05-17T06:57:18;9.65;;;4.88;;
41799;SDS011;27468;47.460;19.034;2023-05-17T06:59:44;8.25;;;4.78;;
41799;SDS011;27468;47.460;19.034;2023-05-17T07:02:09;9.10;;;4.38;;
41799;SDS011;27468;47.460;19.034;2023-05-17T07:04:35;8.75;;;5.25;;
41799;SDS011;27468;47.460;19.034;2023-05-17T07:07:00;9.18;;;4.78;;
41799;SDS011;27468;47.460;19.034;2023-05-17T07:09:26;7.80;;;4.93;;
41799;SDS011;27468;47.460;19.034;2023-05-17T07:11:51;10.45;;;5.28;;
41799;SDS011;27468;47.460;19.034;2023-05-17T07:14:16;13.18;;;6.40;;
41799;SDS011;27468;47.460;19.034;2023-05-17T07:16:42;9.27;;;5.47;;
41799;SDS011;27468;47.460;19.034;2023-05-17T07:19:07;10.45;;;5.05;;
41799;SDS011;27468;47.460;19.034;2023-05-17T07:21:32;10.57;;;5.10;;
41799;SDS011;27468;47.460;19.034;2023-05-17T07:23:58;10.27;;;5.80;;
41799;SDS011;27468;47.460;19.034;2023-05-17T07:26:24;10.02;;;5.15;;
41799;SDS011;27468;47.460;19.034;2023-05-17T07:28:49;8.73;;;4.90;;
41799;SDS011;27468;47.460;19.034;2023-05-17T07:31:15;8.25;;;4.68;;
41799;SDS011;27468;47.460;19.034;2023-05-17T07:33:41;10.30;;;5.28;;
41799;SDS011;27468;47.460;19.034;2023-05-17T07:36:07;7.05;;;4.30;;
41799;SDS011;27468;47.460;19.034;2023-05-17T07:38:32;8.68;;;4.50;;
41799;SDS011;27468;47.460;19.034;2023-05-17T07:41:00;10.05;;;4.68;;
41799;SDS011;27468;47.460;19.034;2023-05-17T07:43:25;8.25;;;4.53;;
41799;SDS011;27468;47.460;19.034;2023-05-17T07:45:51;8.65;;;4.95;;
41799;SDS011;27468;47.460;19.034;2023-05-17T07:48:16;7.75;;;4.40;;
41799;SDS011;27468;47.460;19.034;2023-05-17T07:50:41;8.90;;;4.38;;
41799;SDS011;27468;47.460;19.034;2023-05-17T07:53:08;6.43;;;4.13;;
41799;SDS011;27468;47.460;19.034;2023-05-17T07:55:33;8.23;;;4.50;;
41799;SDS011;27468;47.460;19.034;2023-05-17T07:57:58;12.95;;;5.28;;
41799;SDS011;27468;47.460;19.034;2023-05-17T08:00:24;8.40;;;4.63;;
41799;SDS011;27468;47.460;19.034;2023-05-17T08:02:50;9.18;;;4.60;;
41799;SDS011;27468;47.460;19.034;2023-05-17T08:05:15;8.38;;;4.57;;
41799;SDS011;27468;47.460;19.034;2023-05-17T08:07:41;8.70;;;4.80;;
41799;SDS011;27468;47.460;19.034;2023-05-17T08:10:06;7.65;;;4.25;;
41799;SDS011;27468;47.460;19.034;2023-05-17T08:12:32;9.57;;;4.50;;
41799;SDS011;27468;47.460;19.034;2023-05-17T08:14:57;9.48;;;4.55;;
41799;SDS011;27468;47.460;19.034;2023-05-17T08:17:23;8.13;;;4.82;;
41799;SDS011;27468;47.460;19.034;2023-05-17T08:19:48;9.82;;;4.50;;
41799;SDS011;27468;47.460;19.034;2023-05-17T08:22:14;9.23;;;4.70;;
41799;SDS011;27468;47.460;19.034;2023-05-17T08:24:40;8.65;;;4.75;;
41799;SDS011;27468;47.460;19.034;2023-05-17T08:27:05;10.73;;;4.50;;
41799;SDS011;27468;47.460;19.034;2023-05-17T08:29:31;9.43;;;5.07;;
41799;SDS011;27468;47.460;19.034;2023-05-17T08:31:56;8.00;;;4.20;;
41799;SDS011;27468;47.460;19.034;2023-05-17T08:34:21;7.65;;;4.32;;
41799;SDS011;27468;47.460;19.034;2023-05-17T08:36:47;9.07;;;4.40;;
41799;SDS011;27468;47.460;19.034;2023-05-17T08:39:12;7.90;;;3.97;;
41799;SDS011;27468;47.460;19.034;2023-05-17T08:41:38;7.50;;;3.72;;
41799;SDS011;27468;47.460;19.034;2023-05-17T08:44:04;5.97;;;4.03;;
41799;SDS011;27468;47.460;19.034;2023-05-17T08:46:30;8.43;;;4.60;;
41799;SDS011;27468;47.460;19.034;2023-05-17T08:48:57;9.98;;;5.03;;
41799;SDS011;27468;47.460;19.034;2023-05-17T08:51:24;7.80;;;4.30;;
41799;SDS011;27468;47.460;19.034;2023-05-17T08:53:50;7.88;;;4.28;;
41799;SDS011;27468;47.460;19.034;2023-05-17T08:56:15;7.38;;;5.03;;
41799;SDS011;27468;47.460;19.034;2023-05-17T08:58:43;9.05;;;5.10;;
41799;SDS011;27468;47.460;19.034;2023-05-17T09:01:11;7.72;;;4.40;;
41799;SDS011;27468;47.460;19.034;2023-05-17T09:03:38;7.15;;;4.18;;
41799;SDS011;27468;47.460;19.034;2023-05-17T09:06:07;9.65;;;4.68;;
41799;SDS011;27468;47.460;19.034;2023-05-17T09:08:35;8.38;;;4.40;;
41799;SDS011;27468;47.460;19.034;2023-05-17T09:11:01;7.70;;;4.68;;
41799;SDS011;27468;47.460;19.034;2023-05-17T09:13:27;7.47;;;4.88;;
41799;SDS011;27468;47.460;19.034;2023-05-17T09:15:53;8.65;;;4.30;;
41799;SDS011;27468;47.460;19.034;2023-05-17T09:18:18;7.25;;;3.78;;
41799;SDS011;27468;47.460;19.034;2023-05-17T09:20:53;6.35;;;3.83;;
41799;SDS011;27468;47.460;19.034;2023-05-17T09:23:19;7.55;;;3.97;;
41799;SDS011;27468;47.460;19.034;2023-05-17T09:25:46;8.35;;;4.88;;
41799;SDS011;27468;47.460;19.034;2023-05-17T09:28:14;7.90;;;4.43;;
41799;SDS011;27468;47.460;19.034;2023-05-17T09:30:43;7.68;;;4.70;;
41799;SDS011;27468;47.460;19.034;2023-05-17T09:33:09;10.07;;;5.00;;
41799;SDS011;27468;47.460;19.034;2023-05-17T09:35:36;9.25;;;4.93;;
41799;SDS011;27468;47.460;19.034;2023-05-17T09:40:41;8.02;;;4.20;;
41799;SDS011;27468;47.460;19.034;2023-05-17T09:43:08;9.20;;;5.35;;
41799;SDS011;27468;47.460;19.034;2023-05-17T09:45:35;10.68;;;5.30;;
41799;SDS011;27468;47.460;19.034;2023-05-17T09:48:14;10.93;;;5.82;;
41799;SDS011;27468;47.460;19.034;2023-05-17T09:50:48;12.00;;;5.78;;
41799;SDS011;27468;47.460;19.034;2023-05-17T09:53:33;8.15;;;4.50;;
41799;SDS011;27468;47.460;19.034;2023-05-17T09:56:04;6.30;;;3.80;;
41799;SDS011;27468;47.460;19.034;2023-05-17T09:58:35;7.80;;;3.67;;
41799;SDS011;27468;47.460;19.034;2023-05-17T10:01:02;5.85;;;3.65;;
41799;SDS011;27468;47.460;19.034;2023-05-17T10:05:58;5.75;;;2.88;;
41799;SDS011;27468;47.460;19.034;2023-05-17T10:08:26;6.55;;;3.42;;
41799;SDS011;27468;47.460;19.034;2023-05-17T10:10:54;5.13;;;3.85;;
41799;SDS011;27468;47.460;19.034;2023-05-17T10:13:23;5.40;;;3.13;;
41799;SDS011;27468;47.460;19.034;2023-05-17T10:15:54;4.85;;;2.95;;
41799;SDS011;27468;47.460;19.034;2023-05-17T10:18:20;4.28;;;2.78;;
41799;SDS011;27468;47.460;19.034;2023-05-17T10:20:46;4.68;;;2.60;;
41799;SDS011;27468;47.460;19.034;2023-05-17T10:23:13;4.85;;;3.25;;
41799;SDS011;27468;47.460;19.034;2023-05-17T10:25:39;5.78;;;2.90;;
41799;SDS011;27468;47.460;19.034;2023-05-17T10:28:05;3.55;;;2.60;;
41799;SDS011;27468;47.460;19.034;2023-05-17T10:30:32;3.67;;;2.40;;
41799;SDS011;27468;47.460;19.034;2023-05-17T10:32:58;5.07;;;2.60;;
41799;SDS011;27468;47.460;19.034;2023-05-17T10:35:24;3.88;;;2.55;;
41799;SDS011;27468;47.460;19.034;2023-05-17T10:37:51;5.28;;;2.55;;
41799;SDS011;27468;47.460;19.034;2023-05-17T10:40:17;3.20;;;2.30;;
41799;SDS011;27468;47.460;19.034;2023-05-17T10:42:48;3.70;;;2.47;;
41799;SDS011;27468;47.460;19.034;2023-05-17T10:45:17;4.35;;;2.67;;
41799;SDS011;27468;47.460;19.034;2023-05-17T10:47:46;5.07;;;2.53;;
41799;SDS011;27468;47.460;19.034;2023-05-17T10:50:19;4.97;;;2.63;;
41799;SDS011;27468;47.460;19.034;2023-05-17T10:52:47;4.55;;;2.88;;
41799;SDS011;27468;47.460;19.034;2023-05-17T10:55:17;5.35;;;3.00;;
41799;SDS011;27468;47.460;19.034;2023-05-17T10:57:43;4.80;;;3.22;;
41799;SDS011;27468;47.460;19.034;2023-05-17T11:00:09;5.57;;;3.10;;
41799;SDS011;27468;47.460;19.034;2023-05-17T11:02:44;4.05;;;3.10;;
41799;SDS011;27468;47.460;19.034;2023-05-17T11:05:22;6.47;;;3.42;;
41799;SDS011;27468;47.460;19.034;2023-05-17T11:07:48;5.25;;;3.17;;
41799;SDS011;27468;47.460;19.034;2023-05-17T11:10:14;3.85;;;2.58;;
41799;SDS011;27468;47.460;19.034;2023-05-17T11:12:44;4.20;;;2.50;;
41799;SDS011;27468;47.460;19.034;2023-05-17T11:15:15;3.88;;;2.47;;
41799;SDS011;27468;47.460;19.034;2023-05-17T11:20:07;3.38;;;2.20;;
41799;SDS011;27468;47.460;19.034;2023-05-17T11:22:39;4.13;;;2.40;;
41799;SDS011;27468;47.460;19.034;2023-05-17T11:25:14;4.45;;;2.67;;
41799;SDS011;27468;47.460;19.034;2023-05-17T11:27:44;3.35;;;2.33;;
41799;SDS011;27468;47.460;19.034;2023-05-17T11:32:51;3.83;;;2.30;;
41799;SDS011;27468;47.460;19.034;2023-05-17T11:35:18;2.92;;;1.90;;
41799;SDS011;27468;47.460;19.034;2023-05-17T11:37:50;2.58;;;1.90;;
41799;SDS011;27468;47.460;19.034;2023-05-17T11:40:23;2.55;;;1.80;;
41799;SDS011;27468;47.460;19.034;2023-05-17T11:43:08;3.35;;;1.80;;
41799;SDS011;27468;47.460;19.034;2023-05-17T11:45:41;3.33;;;1.92;;
41799;SDS011;27468;47.460;19.034;2023-05-17T11:48:07;2.83;;;1.92;;
41799;SDS011;27468;47.460;19.034;2023-05-17T11:50:34;2.95;;;1.80;;
41799;SDS011;27468;47.460;19.034;2023-05-17T11:53:01;3.40;;;1.45;;
41799;SDS011;27468;47.460;19.034;2023-05-17T11:55:30;3.85;;;2.45;;
41799;SDS011;27468;47.460;19.034;2023-05-17T11:57:57;5.15;;;3.28;;
41799;SDS011;27468;47.460;19.034;2023-05-17T12:00:23;4.55;;;2.60;;
41799;SDS011;27468;47.460;19.034;2023-05-17T12:02:52;2.95;;;1.80;;
41799;SDS011;27468;47.460;19.034;2023-05-17T12:05:20;4.28;;;2.70;;
41799;SDS011;27468;47.460;19.034;2023-05-17T12:07:46;4.30;;;2.70;;
41799;SDS011;27468;47.460;19.034;2023-05-17T12:10:14;4.32;;;2.78;;
41799;SDS011;27468;47.460;19.034;2023-05-17T12:12:39;4.75;;;2.65;;
41799;SDS011;27468;47.460;19.034;2023-05-17T12:15:05;5.45;;;2.95;;
41799;SDS011;27468;47.460;19.034;2023-05-17T12:17:34;2.75;;;1.88;;
41799;SDS011;27468;47.460;19.034;2023-05-17T12:20:07;2.40;;;1.88;;
41799;SDS011;27468;47.460;19.034;2023-05-17T12:22:33;3.35;;;1.90;;
41799;SDS011;27468;47.460;19.034;2023-05-17T12:24:59;2.50;;;1.70;;
41799;SDS011;27468;47.460;19.034;2023-05-17T12:27:25;5.30;;;1.52;;
41799;SDS011;27468;47.460;19.034;2023-05-17T12:29:51;2.45;;;1.60;;
41799;SDS011;27468;47.460;19.034;2023-05-17T12:32:17;2.15;;;1.55;;
41799;SDS011;27468;47.460;19.034;2023-05-17T12:34:43;2.67;;;1.52;;
41799;SDS011;27468;47.460;19.034;2023-05-17T12:37:09;2.83;;;1.58;;
41799;SDS011;27468;47.460;19.034;2023-05-17T12:39:37;2.83;;;1.80;;
41799;SDS011;27468;47.460;19.034;2023-05-17T12:42:03;3.83;;;2.17;;
41799;SDS011;27468;47.460;19.034;2023-05-17T12:44:29;4.75;;;3.10;;
41799;SDS011;27468;47.460;19.034;2023-05-17T12:46:54;3.75;;;2.70;;
41799;SDS011;27468;47.460;19.034;2023-05-17T12:49:21;3.30;;;2.42;;
41799;SDS011;27468;47.460;19.034;2023-05-17T12:51:47;5.20;;;3.15;;
41799;SDS011;27468;47.460;19.034;2023-05-17T12:56:47;5.50;;;3.30;;
41799;SDS011;27468;47.460;19.034;2023-05-17T12:59:13;4.43;;;2.63;;
41799;SDS011;27468;47.460;19.034;2023-05-17T13:01:44;4.28;;;2.85;;
41799;SDS011;27468;47.460;19.034;2023-05-17T13:04:20;4.05;;;2.10;;
41799;SDS011;27468;47.460;19.034;2023-05-17T13:06:53;2.72;;;1.95;;
41799;SDS011;27468;47.460;19.034;2023-05-17T13:09:21;1.80;;;1.58;;
41799;SDS011;27468;47.460;19.034;2023-05-17T13:11:54;3.85;;;2.03;;
41799;SDS011;27468;47.460;19.034;2023-05-17T13:14:42;1.90;;;1.30;;
41799;SDS011;27468;47.460;19.034;2023-05-17T13:19:35;2.00;;;1.30;;
41799;SDS011;27468;47.460;19.034;2023-05-17T13:22:04;1.92;;;1.25;;
41799;SDS011;27468;47.460;19.034;2023-05-17T13:24:32;1.75;;;1.38;;
41799;SDS011;27468;47.460;19.034;2023-05-17T13:26:59;1.98;;;1.17;;
41799;SDS011;27468;47.460;19.034;2023-05-17T13:29:25;3.25;;;1.92;;
41799;SDS011;27468;47.460;19.034;2023-05-17T13:31:51;4.22;;;1.95;;
41799;SDS011;27468;47.460;19.034;2023-05-17T13:34:17;3.60;;;1.88;;
41799;SDS011;27468;47.460;19.034;2023-05-17T13:36:44;3.42;;;2.08;;
41799;SDS011;27468;47.460;19.034;2023-05-17T13:39:10;4.03;;;2.10;;
41799;SDS011;27468;47.460;19.034;2023-05-17T13:41:36;2.50;;;2.00;;
41799;SDS011;27468;47.460;19.034;2023-05-17T13:44:02;3.88;;;2.40;;
41799;SDS011;27468;47.460;19.034;2023-05-17T13:46:28;3.25;;;1.90;;
41799;SDS011;27468;47.460;19.034;2023-05-17T13:48:53;2.55;;;1.42;;
41799;SDS011;27468;47.460;19.034;2023-05-17T13:51:19;3.10;;;1.80;;
41799;SDS011;27468;47.460;19.034;2023-05-17T13:53:44;2.70;;;1.77;;
41799;SDS011;27468;47.460;19.034;2023-05-17T13:56:09;3.22;;;1.85;;
41799;SDS011;27468;47.460;19.034;2023-05-17T13:58:35;3.17;;;1.80;;
41799;SDS011;27468;47.460;19.034;2023-05-17T14:01:00;3.40;;;1.98;;
41799;SDS011;27468;47.460;19.034;2023-05-17T14:03:26;3.10;;;1.55;;
41799;SDS011;27468;47.460;19.034;2023-05-17T14:05:51;1.88;;;1.40;;
41799;SDS011;27468;47.460;19.034;2023-05-17T14:08:17;2.67;;;1.60;;
41799;SDS011;27468;47.460;19.034;2023-05-17T14:10:44;3.53;;;2.17;;
41799;SDS011;27468;47.460;19.034;2023-05-17T14:13:10;3.05;;;1.73;;
41799;SDS011;27468;47.460;19.034;2023-05-17T14:15:36;3.10;;;1.92;;
41799;SDS011;27468;47.460;19.034;2023-05-17T14:18:04;4.00;;;2.20;;
41799;SDS011;27468;47.460;19.034;2023-05-17T14:20:30;2.83;;;1.50;;
41799;SDS011;27468;47.460;19.034;2023-05-17T14:22:55;4.40;;;2.08;;
41799;SDS011;27468;47.460;19.034;2023-05-17T14:25:21;3.65;;;2.13;;
41799;SDS011;27468;47.460;19.034;2023-05-17T14:27:46;3.00;;;2.08;;
41799;SDS011;27468;47.460;19.034;2023-05-17T14:30:12;2.47;;;1.70;;
41799;SDS011;27468;47.460;19.034;2023-05-17T14:32:39;3.92;;;1.98;;
41799;SDS011;27468;47.460;19.034;2023-05-17T14:35:05;2.88;;;1.70;;
41799;SDS011;27468;47.460;19.034;2023-05-17T14:37:31;3.15;;;1.75;;
41799;SDS011;27468;47.460;19.034;2023-05-17T14:39:57;2.33;;;1.50;;
41799;SDS011;27468;47.460;19.034;2023-05-17T14:42:22;2.03;;;1.33;;
41799;SDS011;27468;47.460;19.034;2023-05-17T14:44:48;3.50;;;1.23;;
41799;SDS011;27468;47.460;19.034;2023-05-17T14:47:13;1.98;;;1.10;;
41799;SDS011;27468;47.460;19.034;2023-05-17T14:49:38;2.05;;;1.45;;
41799;SDS011;27468;47.460;19.034;2023-05-17T14:52:04;2.75;;;1.10;;
41799;SDS011;27468;47.460;19.034;2023-05-17T14:54:29;2.08;;;1.27;;
41799;SDS011;27468;47.460;19.034;2023-05-17T14:56:56;2.30;;;1.13;;
41799;SDS011;27468;47.460;19.034;2023-05-17T14:59:22;2.03;;;1.17;;